Terminal Aerodrome Forecast
Issued by NWS Sioux Falls, SD

Home | Current Version | Previous Version | Text Only | Print | Product List | Glossary Off
Versions: 1 2 3 4 5 6 7 8 9 10 11 12 13 14 15 16 17 18 19 20 21 22

000
FTUS43 KFSD 260435 AAB
TAFFSD
TAF AMD
KFSD 260435Z 2605/2624 02015KT P6SM OVC009
     FM261000 36012KT P6SM OVC007
      TEMPO 2610/2614 5SM -SN
     FM261400 35012KT 3SM -SN OVC012
     FM261700 36011KT P6SM OVC015=

USA.gov is the U.S. government's official web portal to all federal, state and local government web resources and services.